• Join FlightAware (Why Join?)
  • Login
  • US Flag 
09:40PM EDT


 

Airport Tracker/Info


-or-


 

Live Flight TrackerFlight Track Log ✈ CES2841 ✈ 24-Jul-2014 ✈ ZSNJ / NKG - ZBAA / PEK

Flight Track Log - Related Links

Times and Time Zones

All times are in EDT time to prevent confusion due to time zone crossing. See the CES2841 flight status page for this flight to view local times or setup timezone preferences in your user account.

Time Position Orientation Groundspeed Altitude Reporting Facility
EDT Latitude Longitude Course Direction KTS MPH feet Rate Location/Type
07:57AM 33.2902 118.4744 348° North  Level Estimated
07:58AM 33.3934 118.4481 348° North  Level Estimated
07:59AM 33.4966 118.4217 348° North  Level Estimated
08:00AM 33.5997 118.3953 348° North  Level Estimated
08:01AM 33.7029 118.3688 348° North  Level Estimated
08:02AM 33.8060 118.3422 348° North  Level Estimated
08:03AM 33.9092 118.3155 348° North  Level Estimated
08:04AM 34.0123 118.2888 348° North  Level Estimated
08:05AM 34.1154 118.2621 348° North  Level Estimated
08:06AM 34.2186 118.2352 348° North  Level Estimated
08:07AM 34.3217 118.2083 348° North  Level Estimated
08:08AM 34.4248 118.1814 348° North  Level Estimated
08:09AM 34.5279 118.1543 348° North  Level Estimated
08:10AM 34.6310 118.1272 348° North  Level Estimated
08:11AM 34.7341 118.1001 348° North  Level Estimated
08:12AM 34.8372 118.0728 348° North  Level Estimated
08:13AM 34.9403 118.0455 348° North  Level Estimated
08:14AM 35.0434 118.0182 348° North  Level Estimated
08:15AM 35.1464 117.9907 348° North  Level Estimated
08:16AM 35.2495 117.9632 348° North  Level Estimated
08:17AM 35.3525 117.9356 348° North  Level Estimated
08:18AM 35.4556 117.9080 348° North  Level Estimated
08:19AM 35.5586 117.8802 348° North  Level Estimated
08:20AM 35.6617 117.8524 348° North  Level Estimated
08:21AM 35.7647 117.8246 348° North  Level Estimated
08:22AM 35.8677 117.7966 348° North  Level Estimated
08:23AM 35.9708 117.7686 348° North  Level Estimated
08:24AM 36.0738 117.7405 348° North  Level Estimated
08:25AM 36.1768 117.7124 348° North  Level Estimated
08:26AM 36.2798 117.6842 348° North  Level Estimated
08:27AM 36.3828 117.6559 348° North  Level Estimated
08:28AM 36.4857 117.6275 348° North  Level Estimated
08:29AM 36.5887 117.5990 347° North  Level Estimated
08:30AM 36.6917 117.5705 347° North  Level Estimated
08:31AM 36.7947 117.5419 347° North  Level Estimated
08:32AM 36.8976 117.5132 347° North  Level Estimated
08:33AM 37.0006 117.4844 347° North  Level Estimated
08:34AM 37.1035 117.4556 347° North  Level Estimated
08:35AM 37.2065 117.4267 347° North  Level Estimated
08:36AM 37.3094 117.3977 347° North  Level Estimated
08:37AM 37.4123 117.3686 347° North  Level Estimated
08:38AM 37.5152 117.3394 347° North  Level Estimated
08:39AM 37.6181 117.3102 347° North  Level Estimated
08:40AM 37.7211 117.2809 347° North  Level Estimated
08:41AM 37.8240 117.2514 347° North  Level Estimated
08:42AM 37.9268 117.2220 347° North  Level Estimated
08:43AM 38.0297 117.1924 347° North  Level Estimated
08:44AM 38.1326 117.1628 347° North  Level Estimated
08:45AM 38.2355 117.1330 347° North  Level Estimated
08:46AM 38.3383 117.1032 347° North  Level Estimated
08:47AM 38.4034 117.0843 347° North  Level Estimated
08:48AM 38.4685 117.0653 347° North  Level Estimated
08:49AM 38.5336 117.0463 347° North  Level Estimated
08:50AM 38.5986 117.0273 347° North  Level Estimated
08:51AM 38.6637 117.0083 347° North  Level Estimated
08:52AM 38.7288 116.9892 347° North  Level Estimated
08:53AM 38.7938 116.9701 347° North  Level Estimated
08:54AM 38.8589 116.9509 347° North  Level Estimated
08:55AM 38.9240 116.9317 347° North  Level Estimated
08:56AM 38.9890 116.9125 347° North  Level Estimated
08:57AM 39.0541 116.8932 347° North  Level Estimated
08:58AM 39.1191 116.8739 347° North  Level Estimated
08:58AM 36.8143 116.9495 344° North 456 525 25,600  Level FlightAware ADS-B
08:59AM 39.1842 116.8546 347° North  Level Estimated
08:59AM 36.8410 116.9393 344° North 456 525 25,500  Level FlightAware ADS-B
09:00AM 37.0185 116.8715 343° North 468 539 25,500 60 Level FlightAware ADS-B
09:01AM 37.0901 116.8444 344° North 468 539 25,600 180 Climbing FlightAware ADS-B
09:01AM 37.1576 116.8188 344° North 467 537 25,700 60 Climbing FlightAware ADS-B
09:02AM 37.2204 116.7948 343° North 465 535 25,700 -120 Level FlightAware ADS-B
09:02AM 37.2831 116.7708 344° North 464 534 25,600 -240 Descending FlightAware ADS-B
09:03AM 37.3369 116.7503 344° North 458 527 25,500 -1,140 Descending FlightAware ADS-B
09:03AM 37.4036 116.7248 343° North 450 518 24,500 -2,220 Descending FlightAware ADS-B
09:04AM 37.4619 116.7025 343° North 444 511 23,300 -2,520 Descending FlightAware ADS-B
09:04AM 37.5198 116.6802 344° North 439 505 22,000 -2,460 Descending FlightAware ADS-B
09:05AM 37.5625 116.6638 343° North 429 494 20,900 -2,220 Descending FlightAware ADS-B
09:05AM 37.6339 116.6362 343° North 415 478 19,800 -1,020 Descending FlightAware ADS-B
09:06AM 37.7049 116.6088 343° North 385 443 19,700 -120 Descending FlightAware ADS-B
09:06AM 37.7572 116.5885 343° North 387 445 19,700  Level FlightAware ADS-B
09:07AM 37.8080 116.5691 344° North 391 450 19,700  Level FlightAware ADS-B
09:07AM 37.8608 116.5491 344° North 392 451 19,700  Level FlightAware ADS-B
09:08AM 37.9123 116.5295 344° North 385 443 19,700  Level FlightAware ADS-B
09:08AM 37.9629 116.5102 344° North 383 441 19,700  Level FlightAware ADS-B
09:09AM 37.9931 116.5037 359° North 393 452 19,700  Level FlightAware ADS-B
09:09AM 38.0146 116.5064 10° North 399 459 19,700  Level FlightAware ADS-B
09:09AM 38.0706 116.5209 11° North 403 464 19,700  Level FlightAware ADS-B
09:10AM 38.1265 116.5344 10° North 401 461 19,700 -540 Level FlightAware ADS-B
09:10AM 38.1812 116.5473 10° North 397 457 19,200 -1,440 Descending FlightAware ADS-B
09:11AM 38.2347 116.5602 10° North 386 444 18,300 -1,920 Descending FlightAware ADS-B
09:11AM 38.2873 116.5729 10° North 378 435 17,300 -2,040 Descending FlightAware ADS-B
09:12AM 38.3388 116.5854 10° North 371 427 16,300 -1,920 Descending FlightAware ADS-B
09:12AM 38.3880 116.5972 10° North 366 421 15,400 -1,980 Descending FlightAware ADS-B
09:13AM 38.4546 116.6131 10° North 359 413 14,000 -1,080 Descending FlightAware ADS-B
09:14AM 38.5343 116.6323 10° North 346 398 13,800 -180 Descending FlightAware ADS-B
09:14AM 38.5816 116.6438 10° North 346 398 13,800  Level FlightAware ADS-B
09:15AM 38.6284 116.6551 10° North 344 396 13,800  Level FlightAware ADS-B
09:15AM 38.6754 116.6665 10° North 347 399 13,800  Level FlightAware ADS-B
09:16AM 38.7227 116.6780 10° North 343 395 13,800  Level FlightAware ADS-B
09:16AM 38.7696 116.6893 10° North 343 395 13,800  Level FlightAware ADS-B
09:17AM 38.8163 116.7008 10° North 340 391 13,800  Level FlightAware ADS-B
09:17AM 38.8615 116.7118 10° North 341 392 13,800  Level FlightAware ADS-B
09:18AM 38.9092 116.7235 10° North 339 390 13,800  Level FlightAware ADS-B
09:18AM 38.9552 116.7347 10° North 335 386 13,800  Level FlightAware ADS-B
09:19AM 38.9989 116.7454 10° North 333 383 13,800  Level FlightAware ADS-B
09:19AM 39.0454 116.7569 10° North 334 384 13,800  Level FlightAware ADS-B
09:20AM 39.1368 116.7794 10° North 330 380 13,800  Level FlightAware ADS-B
09:21AM 39.1816 116.7901 North 332 382 13,800  Level FlightAware ADS-B
09:21AM 39.1972 116.7899 354° North 336 387 13,800  Level FlightAware ADS-B
09:21AM 39.2107 116.7857 341° North 342 394 13,800  Level FlightAware ADS-B
09:22AM 39.2399 116.7664 330° Northwest 330 380 13,800  Level FlightAware ADS-B
09:22AM 39.2784 116.7368 330° Northwest 315 362 13,800 -600 Level FlightAware ADS-B
09:23AM 39.3156 116.7084 330° Northwest 306 352 13,200 -1,320 Descending FlightAware ADS-B
09:23AM 39.3533 116.6875 347° North 294 338 12,500 -1,620 Descending FlightAware ADS-B
09:24AM 39.3937 116.6796 354° North 294 338 11,600 -1,620 Descending FlightAware ADS-B
09:24AM 39.4331 116.6737 354° North 290 334 10,900 -1,500 Descending FlightAware ADS-B
09:25AM 39.4737 116.6676 353° North 287 330 10,100 -1,740 Descending FlightAware ADS-B
09:25AM 39.4938 116.6645 354° North 286 329 9,600 -1,920 Descending FlightAware ADS-B
09:25AM 39.5133 116.6614 353° North 284 327 9,200 -1,680 Descending FlightAware ADS-B
09:25AM 39.5333 116.6583 354° North 282 325 8,800 -1,620 Descending FlightAware ADS-B
09:26AM 39.5523 116.6554 354° North 281 323 8,400 -1,560 Descending FlightAware ADS-B
09:26AM 39.5707 116.6526 354° North 279 321 8,000 -1,560 Descending FlightAware ADS-B
09:26AM 39.5911 116.6494 354° North 279 321 7,600 -1,920 Descending FlightAware ADS-B
09:26AM 39.6102 116.6464 354° North 279 321 7,100 -1,920 Descending FlightAware ADS-B
09:27AM 39.6278 116.6438 354° North 278 320 6,700 -1,200 Descending FlightAware ADS-B
09:27AM 39.6486 116.6405 354° North 268 308 6,500 -600 Descending FlightAware ADS-B
09:27AM 39.6665 116.6377 353° North 260 299 6,400 -600 Descending FlightAware ADS-B
09:27AM 39.6828 116.6351 353° North 249 287 6,200 -600 Descending FlightAware ADS-B
09:28AM 39.7005 116.6323 353° North 241 277 6,100 -180 Descending FlightAware ADS-B
09:28AM 39.7231 116.6290 354° North 242 278 6,100  Level FlightAware ADS-B
09:28AM 39.7454 116.6254 354° North 242 278 6,100 -180 Level FlightAware ADS-B
09:28AM 39.7618 116.6229 354° North 232 267 6,000 -540 Descending FlightAware ADS-B
09:29AM 39.7814 116.6200 354° North 218 251 5,800 -720 Descending FlightAware ADS-B
09:29AM 39.7971 116.6175 354° North 216 249 5,600 -840 Descending FlightAware ADS-B
09:29AM 39.8120 116.6152 354° North 216 249 5,400 -1,200 Descending FlightAware ADS-B
09:30AM 39.8262 116.6129 354° North 216 249 5,000 -1,440 Descending FlightAware ADS-B
09:30AM 39.8403 116.6107 354° North 216 249 4,700 -1,200 Descending FlightAware ADS-B
09:30AM 39.8556 116.6083 354° North 216 249 4,400 -1,200 Descending FlightAware ADS-B
09:30AM 39.8709 116.6059 354° North 216 249 4,100 -1,020 Descending FlightAware ADS-B
09:31AM 39.8851 116.6037 354° North 216 249 3,900 -1,020 Descending FlightAware ADS-B
09:31AM 39.8997 116.6014 354° North 216 249 3,600 -1,200 Descending FlightAware ADS-B
09:31AM 39.9143 116.5991 354° North 216 249 3,300 -1,260 Descending FlightAware ADS-B
09:31AM 39.9282 116.5969 354° North 216 249 3,000 -1,080 Descending FlightAware ADS-B
09:32AM 39.9432 116.5947 354° North 216 249 2,800 -1,020 Descending FlightAware ADS-B
09:32AM 39.9571 116.5924 354° North 216 249 2,500 -1,200 Descending FlightAware ADS-B
09:32AM 39.9761 116.5894 354° North 201 231 2,100 -1,020 Descending FlightAware ADS-B
09:32AM 39.9873 116.5877 354° North 188 216 1,900 -1,020 Descending FlightAware ADS-B
09:33AM 40.0017 116.5854 354° North 173 199 1,600 -1,080 Descending FlightAware ADS-B
09:33AM 40.0128 116.5837 354° North 161 185 1,400 -840 Descending FlightAware ADS-B
09:35AM 40.0801 116.5846 North  Level Estimated
09:36AM 40.0801 116.5846 North  Level Estimated
09:37AM 40.0801 116.5846 North  Level Estimated
09:38AM 40.0801 116.5846 North  Level Estimated
09:39AM 40.0801 116.5846 North  Level Estimated
09:40AM 40.0801 116.5846 North  Level Estimated
09:41AM 40.0801 116.5846 North  Level Estimated
09:42AM 40.0801 116.5846 North  Level Estimated